sensor_id;sensor_type;location;lat;lon;timestamp;pressure;altitude;pressure_sealevel;temperature;humidity
5753;BME280;2901;42.140;24.760;2023-09-12T00:01:34;99634.66;;;18.61;51.47
5753;BME280;2901;42.140;24.760;2023-09-12T00:03:59;99630.91;;;18.69;50.38
5753;BME280;2901;42.140;24.760;2023-09-12T00:06:24;99639.63;;;18.69;50.40
5753;BME280;2901;42.140;24.760;2023-09-12T00:08:51;99637.25;;;18.63;50.15
5753;BME280;2901;42.140;24.760;2023-09-12T00:11:17;99635.50;;;18.62;49.96
5753;BME280;2901;42.140;24.760;2023-09-12T00:13:43;99642.38;;;18.66;49.64
5753;BME280;2901;42.140;24.760;2023-09-12T00:16:09;99646.88;;;18.62;49.38
5753;BME280;2901;42.140;24.760;2023-09-12T00:18:38;99649.50;;;18.62;49.92
5753;BME280;2901;42.140;24.760;2023-09-12T00:21:03;99656.47;;;18.63;49.20
5753;BME280;2901;42.140;24.760;2023-09-12T00:23:29;99655.59;;;18.63;49.21
5753;BME280;2901;42.140;24.760;2023-09-12T00:25:55;99649.53;;;18.61;49.61
5753;BME280;2901;42.140;24.760;2023-09-12T00:28:21;99649.53;;;18.61;49.70
5753;BME280;2901;42.140;24.760;2023-09-12T00:30:47;99659.13;;;18.62;50.05
5753;BME280;2901;42.140;24.760;2023-09-12T00:33:12;99653.94;;;18.60;50.23
5753;BME280;2901;42.140;24.760;2023-09-12T00:35:38;99654.91;;;18.58;50.87
5753;BME280;2901;42.140;24.760;2023-09-12T00:38:03;99654.91;;;18.58;51.38
5753;BME280;2901;42.140;24.760;2023-09-12T00:40:29;99649.88;;;18.52;51.74
5753;BME280;2901;42.140;24.760;2023-09-12T00:42:55;99656.78;;;18.54;52.25
5753;BME280;2901;42.140;24.760;2023-09-12T00:45:20;99650.69;;;18.54;52.89
5753;BME280;2901;42.140;24.760;2023-09-12T00:47:46;99653.41;;;18.51;53.38
5753;BME280;2901;42.140;24.760;2023-09-12T00:50:13;99657.91;;;18.47;54.05
5753;BME280;2901;42.140;24.760;2023-09-12T00:52:40;99653.66;;;18.43;54.72
5753;BME280;2901;42.140;24.760;2023-09-12T00:55:06;99656.41;;;18.40;55.74
5753;BME280;2901;42.140;24.760;2023-09-12T00:57:33;99654.81;;;18.35;56.53
5753;BME280;2901;42.140;24.760;2023-09-12T01:00:02;99655.91;;;18.29;57.23
5753;BME280;2901;42.140;24.760;2023-09-12T01:02:43;99653.66;;;18.19;58.41
5753;BME280;2901;42.140;24.760;2023-09-12T01:05:10;99659.84;;;18.18;59.39
5753;BME280;2901;42.140;24.760;2023-09-12T01:07:37;99650.50;;;18.09;60.49
5753;BME280;2901;42.140;24.760;2023-09-12T01:10:04;99656.66;;;18.08;61.43
5753;BME280;2901;42.140;24.760;2023-09-12T01:12:29;99662.22;;;17.99;61.98
5753;BME280;2901;42.140;24.760;2023-09-12T01:14:55;99656.50;;;17.88;62.84
5753;BME280;2901;42.140;24.760;2023-09-12T01:17:21;99665.34;;;17.84;63.74
5753;BME280;2901;42.140;24.760;2023-09-12T01:19:47;99661.19;;;17.78;64.95
5753;BME280;2901;42.140;24.760;2023-09-12T01:22:46;99664.94;;;17.70;66.42
5753;BME280;2901;42.140;24.760;2023-09-12T01:28:18;99668.28;;;17.47;68.26
5753;BME280;2901;42.140;24.760;2023-09-12T01:30:45;99664.88;;;17.43;68.57
5753;BME280;2901;42.140;24.760;2023-09-12T01:33:13;99670.41;;;17.34;69.13
5753;BME280;2901;42.140;24.760;2023-09-12T01:35:38;99667.03;;;17.31;69.54
5753;BME280;2901;42.140;24.760;2023-09-12T01:38:04;99662.97;;;17.22;69.90
5753;BME280;2901;42.140;24.760;2023-09-12T01:40:37;99674.31;;;17.21;69.76
5753;BME280;2901;42.140;24.760;2023-09-12T01:43:04;99674.34;;;17.20;69.13
5753;BME280;2901;42.140;24.760;2023-09-12T01:45:31;99671.72;;;17.20;68.95
5753;BME280;2901;42.140;24.760;2023-09-12T01:47:58;99678.88;;;17.15;69.80
5753;BME280;2901;42.140;24.760;2023-09-12T01:50:25;99673.97;;;17.04;69.17
5753;BME280;2901;42.140;24.760;2023-09-12T01:52:53;99672.31;;;17.01;69.03
5753;BME280;2901;42.140;24.760;2023-09-12T01:55:19;99681.13;;;16.97;69.05
5753;BME280;2901;42.140;24.760;2023-09-12T01:57:45;99681.13;;;16.97;69.65
5753;BME280;2901;42.140;24.760;2023-09-12T02:00:12;99680.09;;;17.03;69.81
5753;BME280;2901;42.140;24.760;2023-09-12T02:02:38;99675.59;;;17.08;69.76
5753;BME280;2901;42.140;24.760;2023-09-12T02:05:11;99681.53;;;17.13;69.24
5753;BME280;2901;42.140;24.760;2023-09-12T02:07:39;99682.38;;;17.15;69.41
5753;BME280;2901;42.140;24.760;2023-09-12T02:10:05;99680.53;;;17.17;68.54
5753;BME280;2901;42.140;24.760;2023-09-12T02:12:31;99669.97;;;17.20;68.01
5753;BME280;2901;42.140;24.760;2023-09-12T02:14:57;99682.88;;;17.26;68.56
5753;BME280;2901;42.140;24.760;2023-09-12T02:17:22;99676.06;;;17.21;67.47
5753;BME280;2901;42.140;24.760;2023-09-12T02:19:48;99674.31;;;17.21;67.86
5753;BME280;2901;42.140;24.760;2023-09-12T02:22:14;99672.59;;;17.20;68.24
5753;BME280;2901;42.140;24.760;2023-09-12T02:24:39;99670.97;;;17.16;68.84
5753;BME280;2901;42.140;24.760;2023-09-12T02:27:05;99680.44;;;17.20;69.27
5753;BME280;2901;42.140;24.760;2023-09-12T02:29:30;99672.69;;;17.17;70.00
5753;BME280;2901;42.140;24.760;2023-09-12T02:31:57;99677.91;;;17.19;70.15
5753;BME280;2901;42.140;24.760;2023-09-12T02:34:23;99653.94;;;17.03;71.02
5753;BME280;2901;42.140;24.760;2023-09-12T02:36:48;99676.50;;;17.07;71.98
5753;BME280;2901;42.140;24.760;2023-09-12T02:39:14;99668.78;;;17.02;72.52
5753;BME280;2901;42.140;24.760;2023-09-12T02:41:39;99667.41;;;16.89;73.83
5753;BME280;2901;42.140;24.760;2023-09-12T02:44:05;99677.84;;;16.91;75.04
5753;BME280;2901;42.140;24.760;2023-09-12T02:46:30;99669.44;;;16.80;75.68
5753;BME280;2901;42.140;24.760;2023-09-12T02:48:56;99679.09;;;16.78;75.15
5753;BME280;2901;42.140;24.760;2023-09-12T02:51:21;99671.06;;;16.84;75.83
5753;BME280;2901;42.140;24.760;2023-09-12T02:53:46;99679.19;;;16.75;76.65
5753;BME280;2901;42.140;24.760;2023-09-12T02:56:12;99682.06;;;16.66;78.04
5753;BME280;2901;42.140;24.760;2023-09-12T02:58:37;99679.69;;;16.56;79.41
5753;BME280;2901;42.140;24.760;2023-09-12T03:01:03;99682.28;;;16.58;79.51
5753;BME280;2901;42.140;24.760;2023-09-12T03:03:31;99684.88;;;16.59;79.28
5753;BME280;2901;42.140;24.760;2023-09-12T03:06:00;99679.66;;;16.58;79.59
5753;BME280;2901;42.140;24.760;2023-09-12T03:08:27;99688.47;;;16.55;78.62
5753;BME280;2901;42.140;24.760;2023-09-12T03:10:55;99684.97;;;16.53;79.01
5753;BME280;2901;42.140;24.760;2023-09-12T03:13:20;99685.03;;;16.52;79.70
5753;BME280;2901;42.140;24.760;2023-09-12T03:15:45;99693.84;;;16.48;78.73
5753;BME280;2901;42.140;24.760;2023-09-12T03:18:11;99686.19;;;16.42;79.62
5753;BME280;2901;42.140;24.760;2023-09-12T03:20:39;99681.16;;;16.34;79.53
5753;BME280;2901;42.140;24.760;2023-09-12T03:23:05;99685.50;;;16.35;79.97
5753;BME280;2901;42.140;24.760;2023-09-12T03:25:35;99683.94;;;16.28;78.83
5753;BME280;2901;42.140;24.760;2023-09-12T03:28:00;99696.03;;;16.32;78.96
5753;BME280;2901;42.140;24.760;2023-09-12T03:30:27;99693.53;;;16.28;78.93
5753;BME280;2901;42.140;24.760;2023-09-12T03:32:52;99693.34;;;16.34;79.15
5753;BME280;2901;42.140;24.760;2023-09-12T03:35:18;99705.63;;;16.32;78.44
5753;BME280;2901;42.140;24.760;2023-09-12T03:37:43;99698.72;;;16.29;78.41
5753;BME280;2901;42.140;24.760;2023-09-12T03:40:09;99686.72;;;16.22;77.61
5753;BME280;2901;42.140;24.760;2023-09-12T03:42:35;99696.19;;;16.26;78.57
5753;BME280;2901;42.140;24.760;2023-09-12T03:45:00;99697.16;;;16.22;79.04
5753;BME280;2901;42.140;24.760;2023-09-12T03:47:26;99698.13;;;16.18;79.50
5753;BME280;2901;42.140;24.760;2023-09-12T03:49:51;99700.09;;;16.10;80.58
5753;BME280;2901;42.140;24.760;2023-09-12T03:52:17;99703.88;;;15.98;82.32
5753;BME280;2901;42.140;24.760;2023-09-12T03:54:43;99700.72;;;15.86;83.24
5753;BME280;2901;42.140;24.760;2023-09-12T03:57:08;99706.25;;;15.74;84.48
5753;BME280;2901;42.140;24.760;2023-09-12T03:59:33;99708.00;;;15.72;84.99
5753;BME280;2901;42.140;24.760;2023-09-12T04:02:01;99714.34;;;15.62;85.60
5753;BME280;2901;42.140;24.760;2023-09-12T04:04:26;99714.28;;;15.65;85.57
5753;BME280;2901;42.140;24.760;2023-09-12T04:06:52;99714.41;;;15.60;85.76
5753;BME280;2901;42.140;24.760;2023-09-12T04:09:17;99720.59;;;15.54;86.30
5753;BME280;2901;42.140;24.760;2023-09-12T04:11:42;99721.59;;;15.50;86.75
5753;BME280;2901;42.140;24.760;2023-09-12T04:14:08;99727.72;;;15.46;86.64
5753;BME280;2901;42.140;24.760;2023-09-12T04:16:33;99728.81;;;15.36;87.44
5753;BME280;2901;42.140;24.760;2023-09-12T04:18:59;99715.84;;;15.33;87.64
5753;BME280;2901;42.140;24.760;2023-09-12T04:21:24;99722.00;;;15.31;88.59
5753;BME280;2901;42.140;24.760;2023-09-12T04:23:49;99720.28;;;15.30;88.97
5753;BME280;2901;42.140;24.760;2023-09-12T04:26:15;99723.75;;;15.30;88.90
5753;BME280;2901;42.140;24.760;2023-09-12T04:28:40;99718.47;;;15.33;89.57
5753;BME280;2901;42.140;24.760;2023-09-12T04:31:06;99716.50;;;15.41;89.30
5753;BME280;2901;42.140;24.760;2023-09-12T04:33:31;99719.03;;;15.46;89.05
5753;BME280;2901;42.140;24.760;2023-09-12T04:35:58;99716.63;;;15.37;89.50
5753;BME280;2901;42.140;24.760;2023-09-12T04:38:24;99721.06;;;15.33;89.78
5753;BME280;2901;42.140;24.760;2023-09-12T04:40:56;99718.34;;;15.38;89.40
5753;BME280;2901;42.140;24.760;2023-09-12T04:43:23;99719.13;;;15.41;89.34
5753;BME280;2901;42.140;24.760;2023-09-12T04:45:49;99716.38;;;15.50;89.08
5753;BME280;2901;42.140;24.760;2023-09-12T04:48:14;99718.69;;;15.63;88.49
5753;BME280;2901;42.140;24.760;2023-09-12T04:50:42;99720.91;;;15.79;87.63
5753;BME280;2901;42.140;24.760;2023-09-12T04:53:08;99718.91;;;15.89;87.01
5753;BME280;2901;42.140;24.760;2023-09-12T04:55:35;99722.38;;;15.89;86.58
5753;BME280;2901;42.140;24.760;2023-09-12T04:58:01;99723.81;;;16.02;86.20
5753;BME280;2901;42.140;24.760;2023-09-12T05:00:26;99720.22;;;16.06;85.50
5753;BME280;2901;42.140;24.760;2023-09-12T05:02:52;99721.81;;;16.12;85.82
5753;BME280;2901;42.140;24.760;2023-09-12T05:05:17;99724.28;;;16.18;85.03
5753;BME280;2901;42.140;24.760;2023-09-12T05:07:42;99724.03;;;16.27;85.42
5753;BME280;2901;42.140;24.760;2023-09-12T05:10:08;99719.63;;;16.29;84.26
5753;BME280;2901;42.140;24.760;2023-09-12T05:12:33;99728.34;;;16.30;84.18
5753;BME280;2901;42.140;24.760;2023-09-12T05:14:59;99727.31;;;16.35;83.14
5753;BME280;2901;42.140;24.760;2023-09-12T05:17:24;99729.03;;;16.36;82.64
5753;BME280;2901;42.140;24.760;2023-09-12T05:19:50;99720.25;;;16.39;82.63
5753;BME280;2901;42.140;24.760;2023-09-12T05:22:15;99728.69;;;16.48;82.28
5753;BME280;2901;42.140;24.760;2023-09-12T05:24:41;99725.19;;;16.49;82.22
5753;BME280;2901;42.140;24.760;2023-09-12T05:27:06;99729.31;;;16.59;80.81
5753;BME280;2901;42.140;24.760;2023-09-12T05:29:32;99723.00;;;16.67;81.02
5753;BME280;2901;42.140;24.760;2023-09-12T05:31:57;99724.53;;;16.74;79.64
5753;BME280;2901;42.140;24.760;2023-09-12T05:34:22;99732.09;;;16.84;79.83
5753;BME280;2901;42.140;24.760;2023-09-12T05:36:48;99724.72;;;16.98;78.92
5753;BME280;2901;42.140;24.760;2023-09-12T05:39:13;99727.84;;;17.11;78.19
5753;BME280;2901;42.140;24.760;2023-09-12T05:41:41;99722.22;;;17.23;78.65
5753;BME280;2901;42.140;24.760;2023-09-12T05:44:06;99720.38;;;17.27;78.86
5753;BME280;2901;42.140;24.760;2023-09-12T05:46:32;99709.69;;;17.34;78.28
5753;BME280;2901;42.140;24.760;2023-09-12T05:48:57;99718.06;;;17.45;78.46
5753;BME280;2901;42.140;24.760;2023-09-12T05:51:23;99708.50;;;17.44;77.95
5753;BME280;2901;42.140;24.760;2023-09-12T05:53:48;99707.66;;;17.42;77.73
5753;BME280;2901;42.140;24.760;2023-09-12T05:56:14;99706.69;;;17.46;77.75
5753;BME280;2901;42.140;24.760;2023-09-12T05:58:40;99699.66;;;17.48;78.00
5753;BME280;2901;42.140;24.760;2023-09-12T06:01:08;99707.94;;;17.62;78.29
5753;BME280;2901;42.140;24.760;2023-09-12T06:03:33;99703.34;;;17.71;78.45
5753;BME280;2901;42.140;24.760;2023-09-12T06:05:59;99705.66;;;17.80;77.59
5753;BME280;2901;42.140;24.760;2023-09-12T06:08:24;99715.47;;;17.99;76.89
5753;BME280;2901;42.140;24.760;2023-09-12T06:10:49;99714.13;;;18.14;75.28
5753;BME280;2901;42.140;24.760;2023-09-12T06:13:19;99707.16;;;18.13;73.54
5753;BME280;2901;42.140;24.760;2023-09-12T06:15:44;99718.66;;;18.09;72.75
5753;BME280;2901;42.140;24.760;2023-09-12T06:18:10;99718.88;;;18.01;73.83
5753;BME280;2901;42.140;24.760;2023-09-12T06:20:36;99721.13;;;18.13;74.51
5753;BME280;2901;42.140;24.760;2023-09-12T06:23:01;99723.69;;;18.15;75.17
5753;BME280;2901;42.140;24.760;2023-09-12T06:25:28;99717.28;;;18.24;76.46
5753;BME280;2901;42.140;24.760;2023-09-12T06:27:54;99726.97;;;18.46;75.49
5753;BME280;2901;42.140;24.760;2023-09-12T06:30:19;99723.06;;;18.59;74.91
5753;BME280;2901;42.140;24.760;2023-09-12T06:32:45;99728.88;;;18.67;74.32
5753;BME280;2901;42.140;24.760;2023-09-12T06:35:10;99725.19;;;18.73;73.63
5753;BME280;2901;42.140;24.760;2023-09-12T06:37:37;99729.94;;;18.87;73.57
5753;BME280;2901;42.140;24.760;2023-09-12T06:40:03;99722.50;;;18.98;73.99
5753;BME280;2901;42.140;24.760;2023-09-12T06:42:29;99732.47;;;19.13;74.33
5753;BME280;2901;42.140;24.760;2023-09-12T06:44:54;99722.34;;;19.26;73.30
5753;BME280;2901;42.140;24.760;2023-09-12T06:47:20;99728.66;;;19.43;73.18
5753;BME280;2901;42.140;24.760;2023-09-12T06:49:45;99723.09;;;19.52;71.93
5753;BME280;2901;42.140;24.760;2023-09-12T06:52:10;99731.78;;;19.53;71.74
5753;BME280;2901;42.140;24.760;2023-09-12T06:54:36;99721.00;;;19.60;71.21
5753;BME280;2901;42.140;24.760;2023-09-12T06:57:01;99732.94;;;19.69;70.80
5753;BME280;2901;42.140;24.760;2023-09-12T06:59:27;99725.44;;;19.80;69.63
5753;BME280;2901;42.140;24.760;2023-09-12T07:01:52;99726.63;;;19.95;69.33
5753;BME280;2901;42.140;24.760;2023-09-12T07:04:18;99730.72;;;20.02;66.69
5753;BME280;2901;42.140;24.760;2023-09-12T07:06:43;99717.44;;;20.05;67.16
5753;BME280;2901;42.140;24.760;2023-09-12T07:09:09;99732.69;;;20.17;66.22
5753;BME280;2901;42.140;24.760;2023-09-12T07:11:36;99728.03;;;20.24;64.67
5753;BME280;2901;42.140;24.760;2023-09-12T07:14:02;99733.13;;;20.28;63.85
5753;BME280;2901;42.140;24.760;2023-09-12T07:16:30;99734.56;;;20.35;64.25
5753;BME280;2901;42.140;24.760;2023-09-12T07:18:56;99726.94;;;20.49;63.98
5753;BME280;2901;42.140;24.760;2023-09-12T07:21:22;99727.94;;;20.67;63.75
5753;BME280;2901;42.140;24.760;2023-09-12T07:23:48;99729.09;;;20.80;64.05
5753;BME280;2901;42.140;24.760;2023-09-12T07:26:14;99728.63;;;20.91;64.06
5753;BME280;2901;42.140;24.760;2023-09-12T07:28:40;99725.56;;;21.00;62.65
5753;BME280;2901;42.140;24.760;2023-09-12T07:31:05;99718.41;;;21.03;61.49
5753;BME280;2901;42.140;24.760;2023-09-12T07:33:30;99719.56;;;21.16;62.46
5753;BME280;2901;42.140;24.760;2023-09-12T07:35:56;99708.03;;;21.19;64.02
5753;BME280;2901;42.140;24.760;2023-09-12T07:38:21;99707.88;;;21.22;65.31
5753;BME280;2901;42.140;24.760;2023-09-12T07:40:47;99713.66;;;21.30;64.93
5753;BME280;2901;42.140;24.760;2023-09-12T07:43:12;99718.56;;;21.38;64.85
5753;BME280;2901;42.140;24.760;2023-09-12T07:45:38;99704.31;;;21.42;66.06
5753;BME280;2901;42.140;24.760;2023-09-12T07:48:07;99716.22;;;21.50;65.04
5753;BME280;2901;42.140;24.760;2023-09-12T07:50:33;99699.88;;;21.61;65.48
5753;BME280;2901;42.140;24.760;2023-09-12T07:52:59;99703.88;;;21.69;64.22
5753;BME280;2901;42.140;24.760;2023-09-12T07:55:24;99704.97;;;21.83;64.41
5753;BME280;2901;42.140;24.760;2023-09-12T07:57:49;99702.63;;;21.95;63.27
5753;BME280;2901;42.140;24.760;2023-09-12T08:00:15;99704.09;;;22.01;62.54
5753;BME280;2901;42.140;24.760;2023-09-12T08:02:42;99709.91;;;22.07;62.41
5753;BME280;2901;42.140;24.760;2023-09-12T08:05:07;99690.44;;;22.10;62.68
5753;BME280;2901;42.140;24.760;2023-09-12T08:07:34;99707.75;;;22.15;62.20
5753;BME280;2901;42.140;24.760;2023-09-12T08:09:59;99696.56;;;22.28;60.42
5753;BME280;2901;42.140;24.760;2023-09-12T08:12:27;99694.41;;;22.36;57.84
5753;BME280;2901;42.140;24.760;2023-09-12T08:14:53;99699.91;;;22.48;57.29
5753;BME280;2901;42.140;24.760;2023-09-12T08:17:19;99697.81;;;22.55;57.97
5753;BME280;2901;42.140;24.760;2023-09-12T08:19:45;99686.97;;;22.59;58.63
5753;BME280;2901;42.140;24.760;2023-09-12T08:22:11;99689.03;;;22.71;58.00
5753;BME280;2901;42.140;24.760;2023-09-12T08:24:37;99688.94;;;22.89;57.57
5753;BME280;2901;42.140;24.760;2023-09-12T08:27:03;99686.09;;;23.09;56.44
5753;BME280;2901;42.140;24.760;2023-09-12T08:29:29;99682.78;;;23.37;55.89
5753;BME280;2901;42.140;24.760;2023-09-12T08:31:55;99686.84;;;23.44;54.10
5753;BME280;2901;42.140;24.760;2023-09-12T08:34:21;99684.09;;;23.45;54.13
5753;BME280;2901;42.140;24.760;2023-09-12T08:36:47;99687.84;;;23.57;54.43
5753;BME280;2901;42.140;24.760;2023-09-12T08:39:14;99675.31;;;23.60;53.24
5753;BME280;2901;42.140;24.760;2023-09-12T08:41:41;99684.81;;;23.78;52.45
5753;BME280;2901;42.140;24.760;2023-09-12T08:44:07;99665.63;;;23.91;52.52
5753;BME280;2901;42.140;24.760;2023-09-12T08:46:32;99682.72;;;24.15;51.64
5753;BME280;2901;42.140;24.760;2023-09-12T08:48:58;99674.25;;;24.38;50.98
5753;BME280;2901;42.140;24.760;2023-09-12T08:51:23;99664.19;;;24.59;50.14
5753;BME280;2901;42.140;24.760;2023-09-12T08:53:50;99673.28;;;24.83;49.18
5753;BME280;2901;42.140;24.760;2023-09-12T08:56:15;99666.66;;;25.04;49.19
5753;BME280;2901;42.140;24.760;2023-09-12T08:58:41;99666.13;;;25.26;47.93
5753;BME280;2901;42.140;24.760;2023-09-12T09:01:07;99657.28;;;25.40;46.54
5753;BME280;2901;42.140;24.760;2023-09-12T09:03:37;99657.94;;;25.43;44.94
5753;BME280;2901;42.140;24.760;2023-09-12T09:06:04;99663.81;;;25.48;44.07
5753;BME280;2901;42.140;24.760;2023-09-12T09:08:31;99653.03;;;25.37;43.00
5753;BME280;2901;42.140;24.760;2023-09-12T09:10:58;99658.13;;;25.40;43.01
5753;BME280;2901;42.140;24.760;2023-09-12T09:13:25;99662.50;;;25.41;43.40
5753;BME280;2901;42.140;24.760;2023-09-12T09:16:15;99651.66;;;25.32;43.38
5753;BME280;2901;42.140;24.760;2023-09-12T09:19:07;99657.16;;;25.14;43.21
5753;BME280;2901;42.140;24.760;2023-09-12T09:21:36;99659.13;;;25.25;43.10
5753;BME280;2901;42.140;24.760;2023-09-12T09:24:06;99646.47;;;25.43;41.83
5753;BME280;2901;42.140;24.760;2023-09-12T09:26:52;99653.78;;;25.53;41.37
5753;BME280;2901;42.140;24.760;2023-09-12T09:29:25;99651.78;;;25.57;41.56
5753;BME280;2901;42.140;24.760;2023-09-12T09:31:51;99641.91;;;25.59;41.28
5753;BME280;2901;42.140;24.760;2023-09-12T09:34:21;99642.56;;;25.62;41.07
5753;BME280;2901;42.140;24.760;2023-09-12T09:36:48;99644.63;;;25.71;39.61
5753;BME280;2901;42.140;24.760;2023-09-12T09:39:15;99621.69;;;25.70;39.83
5753;BME280;2901;42.140;24.760;2023-09-12T09:41:42;99637.34;;;25.88;40.36
5753;BME280;2901;42.140;24.760;2023-09-12T09:44:08;99632.47;;;25.94;39.74
5753;BME280;2901;42.140;24.760;2023-09-12T09:46:38;99628.47;;;26.14;39.78
5753;BME280;2901;42.140;24.760;2023-09-12T09:49:03;99621.50;;;26.38;39.50
5753;BME280;2901;42.140;24.760;2023-09-12T09:51:31;99618.28;;;26.58;38.44
5753;BME280;2901;42.140;24.760;2023-09-12T09:53:57;99628.72;;;26.87;38.05
5753;BME280;2901;42.140;24.760;2023-09-12T09:56:24;99625.50;;;27.07;37.32
5753;BME280;2901;42.140;24.760;2023-09-12T09:58:55;99613.97;;;27.19;37.40
5753;BME280;2901;42.140;24.760;2023-09-12T10:01:28;99617.69;;;27.40;37.01
5753;BME280;2901;42.140;24.760;2023-09-12T10:03:58;99619.28;;;27.66;37.37
5753;BME280;2901;42.140;24.760;2023-09-12T10:06:25;99614.75;;;27.79;36.41
5753;BME280;2901;42.140;24.760;2023-09-12T10:08:53;99610.75;;;27.74;36.62
5753;BME280;2901;42.140;24.760;2023-09-12T10:11:22;99612.84;;;27.81;35.41
5753;BME280;2901;42.140;24.760;2023-09-12T10:13:57;99610.88;;;27.72;35.42
5753;BME280;2901;42.140;24.760;2023-09-12T10:16:30;99607.63;;;27.80;34.53
5753;BME280;2901;42.140;24.760;2023-09-12T10:19:07;99602.81;;;27.85;35.29
5753;BME280;2901;42.140;24.760;2023-09-12T10:21:35;99604.16;;;27.91;35.05
5753;BME280;2901;42.140;24.760;2023-09-12T10:24:03;99606.09;;;27.89;35.39
5753;BME280;2901;42.140;24.760;2023-09-12T10:26:30;99597.34;;;27.87;35.02
5753;BME280;2901;42.140;24.760;2023-09-12T10:28:57;99601.63;;;27.89;35.09
5753;BME280;2901;42.140;24.760;2023-09-12T10:31:25;99592.31;;;27.95;35.29
5753;BME280;2901;42.140;24.760;2023-09-12T10:33:52;99592.56;;;28.03;35.28
5753;BME280;2901;42.140;24.760;2023-09-12T10:36:19;99592.75;;;28.12;35.41
5753;BME280;2901;42.140;24.760;2023-09-12T10:38:47;99592.88;;;28.22;34.79
5753;BME280;2901;42.140;24.760;2023-09-12T10:41:14;99591.41;;;28.29;34.78
5753;BME280;2901;42.140;24.760;2023-09-12T10:43:40;99574.00;;;28.47;34.57
5753;BME280;2901;42.140;24.760;2023-09-12T10:46:07;99571.34;;;28.69;34.82
5753;BME280;2901;42.140;24.760;2023-09-12T10:48:34;99575.34;;;28.86;34.28
5753;BME280;2901;42.140;24.760;2023-09-12T10:51:01;99565.97;;;29.03;33.54
5753;BME280;2901;42.140;24.760;2023-09-12T10:53:28;99566.22;;;29.11;33.33
5753;BME280;2901;42.140;24.760;2023-09-12T10:56:20;99562.53;;;29.23;33.95
5753;BME280;2901;42.140;24.760;2023-09-12T11:01:30;99548.88;;;29.48;33.87
5753;BME280;2901;42.140;24.760;2023-09-12T11:03:55;99547.66;;;29.52;33.60
5753;BME280;2901;42.140;24.760;2023-09-12T11:06:30;99543.53;;;29.48;33.51
5753;BME280;2901;42.140;24.760;2023-09-12T11:09:31;99542.31;;;29.52;33.16
5753;BME280;2901;42.140;24.760;2023-09-12T11:12:03;99542.25;;;29.43;33.54
5753;BME280;2901;42.140;24.760;2023-09-12T11:14:30;99539.06;;;29.49;33.05
5753;BME280;2901;42.140;24.760;2023-09-12T11:19:52;99533.19;;;29.55;33.45
5753;BME280;2901;42.140;24.760;2023-09-12T11:22:22;99537.25;;;29.70;33.33
5753;BME280;2901;42.140;24.760;2023-09-12T11:24:48;99529.56;;;29.76;33.04
5753;BME280;2901;42.140;24.760;2023-09-12T11:27:14;99519.25;;;29.83;33.05
5753;BME280;2901;42.140;24.760;2023-09-12T11:29:39;99519.31;;;29.93;32.84
5753;BME280;2901;42.140;24.760;2023-09-12T11:32:06;99523.16;;;30.00;32.50
5753;BME280;2901;42.140;24.760;2023-09-12T11:34:41;99516.16;;;30.08;32.46
5753;BME280;2901;42.140;24.760;2023-09-12T11:37:07;99530.97;;;29.92;31.74
5753;BME280;2901;42.140;24.760;2023-09-12T11:39:34;99521.16;;;29.81;32.51
5753;BME280;2901;42.140;24.760;2023-09-12T11:42:01;99519.44;;;29.91;32.94
5753;BME280;2901;42.140;24.760;2023-09-12T11:44:28;99513.28;;;30.00;32.37
5753;BME280;2901;42.140;24.760;2023-09-12T11:46:55;99503.78;;;30.07;32.38
5753;BME280;2901;42.140;24.760;2023-09-12T11:49:23;99505.91;;;30.13;32.34
5753;BME280;2901;42.140;24.760;2023-09-12T11:51:53;99497.22;;;29.91;32.72
5753;BME280;2901;42.140;24.760;2023-09-12T11:54:25;99509.00;;;29.88;32.81
5753;BME280;2901;42.140;24.760;2023-09-12T11:56:51;99499.94;;;30.00;33.26
5753;BME280;2901;42.140;24.760;2023-09-12T11:59:25;99491.03;;;30.20;32.68
5753;BME280;2901;42.140;24.760;2023-09-12T12:01:52;99496.72;;;30.36;32.80
5753;BME280;2901;42.140;24.760;2023-09-12T12:04:20;99489.13;;;30.32;32.40
5753;BME280;2901;42.140;24.760;2023-09-12T12:06:47;99489.56;;;30.37;32.68
5753;BME280;2901;42.140;24.760;2023-09-12T12:09:13;99471.06;;;30.15;32.50
5753;BME280;2901;42.140;24.760;2023-09-12T12:11:39;99473.66;;;30.35;32.76
5753;BME280;2901;42.140;24.760;2023-09-12T12:14:11;99472.44;;;30.40;32.68
5753;BME280;2901;42.140;24.760;2023-09-12T12:16:37;99467.13;;;30.49;32.36
5753;BME280;2901;42.140;24.760;2023-09-12T12:19:02;99461.56;;;30.31;31.80
5753;BME280;2901;42.140;24.760;2023-09-12T12:21:28;99456.78;;;30.35;32.04
5753;BME280;2901;42.140;24.760;2023-09-12T12:23:58;99455.03;;;30.45;32.15
5753;BME280;2901;42.140;24.760;2023-09-12T12:26:25;99452.34;;;30.45;32.11
5753;BME280;2901;42.140;24.760;2023-09-12T12:28:51;99457.47;;;30.37;31.73
5753;BME280;2901;42.140;24.760;2023-09-12T12:31:16;99451.69;;;30.22;32.06
5753;BME280;2901;42.140;24.760;2023-09-12T12:33:52;99459.19;;;30.38;32.64
5753;BME280;2901;42.140;24.760;2023-09-12T12:36:18;99453.03;;;30.47;31.54
5753;BME280;2901;42.140;24.760;2023-09-12T12:38:45;99445.91;;;30.57;31.54
5753;BME280;2901;42.140;24.760;2023-09-12T12:41:12;99462.69;;;30.78;31.56
5753;BME280;2901;42.140;24.760;2023-09-12T12:43:41;99464.53;;;30.87;31.21
5753;BME280;2901;42.140;24.760;2023-09-12T12:46:11;99455.63;;;30.58;30.90
5753;BME280;2901;42.140;24.760;2023-09-12T12:48:37;99453.81;;;30.68;31.30
5753;BME280;2901;42.140;24.760;2023-09-12T12:51:22;99453.53;;;30.81;31.43
5753;BME280;2901;42.140;24.760;2023-09-12T12:53:50;99453.53;;;30.91;31.19
5753;BME280;2901;42.140;24.760;2023-09-12T12:56:21;99441.34;;;30.98;31.13
5753;BME280;2901;42.140;24.760;2023-09-12T12:58:52;99447.66;;;30.97;30.79
5753;BME280;2901;42.140;24.760;2023-09-12T13:01:18;99444.81;;;30.88;30.58
5753;BME280;2901;42.140;24.760;2023-09-12T13:03:44;99439.19;;;30.82;30.41
5753;BME280;2901;42.140;24.760;2023-09-12T13:06:12;99437.34;;;30.73;30.88
5753;BME280;2901;42.140;24.760;2023-09-12T13:08:43;99433.97;;;30.71;31.34
5753;BME280;2901;42.140;24.760;2023-09-12T13:11:09;99442.69;;;30.82;31.40
5753;BME280;2901;42.140;24.760;2023-09-12T13:13:36;99436.69;;;31.00;30.93
5753;BME280;2901;42.140;24.760;2023-09-12T13:16:06;99443.72;;;31.10;31.04
5753;BME280;2901;42.140;24.760;2023-09-12T13:18:32;99440.63;;;31.15;30.72